Time;durP1;ratioP1;P1;durP2;ratioP2;P2;SDS_P1;SDS_P2;PMS_P1;PMS_P2;Temp;Humidity;BMP_temperature;BMP_pressure;BME280_temperature;BME280_humidity;BME280_pressure;Samples;Min_cycle;Max_cycle;Signal;HPM_P1;HPM_P2
2022/03/26 00:00:16;;;;;;;8.90;6.10;;;;;;;0.27;62.47;99396.00;105138;1271;62051;-30
2022/03/26 00:02:47;;;;;;;14.20;6.80;;;;;;;0.25;62.95;99392.48;104786;1271;74905;-30
2022/03/26 00:05:18;;;;;;;11.60;6.30;;;;;;;0.27;63.23;99387.97;104953;1271;75004;-30
2022/03/26 00:07:47;;;;;;;14.40;7.70;;;;;;;0.33;63.48;99387.79;104672;1271;72398;-30
2022/03/26 00:10:17;;;;;;;15.80;8.50;;;;;;;0.36;62.76;99390.40;104820;1271;61073;-30
2022/03/26 00:12:53;;;;;;;14.80;8.00;;;;;;;0.35;62.63;99387.20;104918;1271;61036;-29
2022/03/26 00:15:22;;;;;;;13.10;8.00;;;;;;;0.31;63.09;99384.58;104981;1271;74553;-30
2022/03/26 00:17:57;;;;;;;12.70;6.90;;;;;;;0.27;63.10;99378.25;104720;1274;78261;-28
2022/03/26 00:20:27;;;;;;;15.80;8.10;;;;;;;0.29;63.48;99372.70;104931;1271;74862;-29
2022/03/26 00:22:59;;;;;;;18.50;7.10;;;;;;;0.36;63.61;99370.23;104888;1271;61141;-29
2022/03/26 00:25:29;;;;;;;17.40;7.90;;;;;;;0.44;63.67;99365.52;104816;1271;61569;-28
2022/03/26 00:27:59;;;;;;;16.80;8.80;;;;;;;0.49;63.43;99361.44;104826;1271;75446;-28
2022/03/26 00:30:29;;;;;;;12.20;7.10;;;;;;;0.51;63.28;99360.16;104974;1271;75998;-28
2022/03/26 00:32:58;;;;;;;11.10;6.40;;;;;;;0.53;63.24;99360.27;104795;1271;74170;-28
2022/03/26 00:35:28;;;;;;;11.20;6.20;;;;;;;0.52;63.18;99355.34;104932;1271;61173;-29
2022/03/26 00:37:58;;;;;;;11.60;6.90;;;;;;;0.50;63.11;99355.75;104820;1271;61157;-28
2022/03/26 00:40:28;;;;;;;16.80;8.90;;;;;;;0.49;63.39;99352.90;104832;1271;75759;-28
2022/03/26 00:42:59;;;;;;;17.40;8.70;;;;;;;0.45;62.85;99350.95;104952;1271;75145;-28
2022/03/26 00:45:29;;;;;;;13.60;7.80;;;;;;;0.38;63.10;99347.99;104755;1274;74591;-28
2022/03/26 00:48:02;;;;;;;15.30;8.20;;;;;;;0.32;62.95;99346.98;104770;1273;61038;-28
2022/03/26 00:50:32;;;;;;;15.00;8.10;;;;;;;0.28;62.88;99341.98;104746;1271;61222;-28
2022/03/26 00:53:01;;;;;;;15.90;8.40;;;;;;;0.25;63.14;99338.02;104965;1271;75797;-28
2022/03/26 00:55:34;;;;;;;16.30;8.40;;;;;;;0.23;63.28;99337.54;104729;1271;75995;-29
2022/03/26 00:58:04;;;;;;;17.40;8.70;;;;;;;0.23;63.13;99333.96;104943;1271;74797;-28
2022/03/26 01:00:34;;;;;;;13.90;8.80;;;;;;;0.23;63.38;99334.51;104888;1271;61070;-29
2022/03/26 01:03:08;;;;;;;17.20;8.40;;;;;;;0.24;63.30;99331.55;104898;1271;61072;-28
2022/03/26 01:05:38;;;;;;;20.30;8.70;;;;;;;0.24;63.64;99328.80;105038;1271;75750;-28
2022/03/26 01:08:08;;;;;;;16.30;8.50;;;;;;;0.25;63.52;99330.80;104984;1271;76287;-28
2022/03/26 01:10:58;;;;;;;15.20;8.80;;;;;;;0.24;63.75;99324.70;104926;1270;74739;-29
2022/03/26 01:13:31;;;;;;;12.80;7.70;;;;;;;0.24;63.94;99323.68;105048;1271;61133;-28
2022/03/26 01:16:02;;;;;;;15.20;8.20;;;;;;;0.25;63.68;99321.94;105033;1271;61059;-28
2022/03/26 01:18:32;;;;;;;19.30;8.00;;;;;;;0.27;63.55;99321.34;104957;1271;75390;-28
2022/03/26 01:21:02;;;;;;;12.90;7.40;;;;;;;0.32;63.38;99320.34;104956;1272;74759;-28
2022/03/26 01:23:34;;;;;;;15.20;7.40;;;;;;;0.36;63.40;99317.11;105014;1271;76325;-28
2022/03/26 01:26:04;;;;;;;14.60;7.60;;;;;;;0.40;63.57;99316.83;104986;1271;61784;-28
2022/03/26 01:28:34;;;;;;;17.30;7.30;;;;;;;0.44;63.45;99310.69;105173;1271;61082;-28
2022/03/26 01:31:24;;;;;;;15.60;7.90;;;;;;;0.48;63.42;99307.84;105139;1271;74374;-28
2022/03/26 01:33:54;;;;;;;18.20;8.00;;;;;;;0.51;63.38;99309.42;104970;1270;75112;-28
2022/03/26 01:36:24;;;;;;;14.90;9.00;;;;;;;0.52;63.32;99306.33;105052;1270;72213;-28
2022/03/26 01:38:53;;;;;;;16.10;7.80;;;;;;;0.51;63.76;99302.42;105364;1271;61156;-28
2022/03/26 01:41:24;;;;;;;15.90;8.50;;;;;;;0.51;63.43;99300.39;105090;1271;60997;-28
2022/03/26 01:43:53;;;;;;;15.60;7.50;;;;;;;0.51;63.50;99295.27;104977;1270;75663;-28
2022/03/26 01:46:23;;;;;;;17.20;9.20;;;;;;;0.52;63.83;99296.91;104925;1271;76103;-28
2022/03/26 01:48:53;;;;;;;15.60;8.00;;;;;;;0.52;63.96;99297.77;104895;1271;74388;-29
2022/03/26 01:51:23;;;;;;;18.30;8.60;;;;;;;0.51;63.62;99293.52;104820;1271;61212;-28
2022/03/26 01:53:53;;;;;;;14.40;8.00;;;;;;;0.52;63.68;99297.11;104910;1271;61113;-28
2022/03/26 01:56:22;;;;;;;16.60;9.30;;;;;;;0.51;63.85;99298.14;104952;1269;75816;-28
2022/03/26 01:58:52;;;;;;;13.70;5.60;;;;;;;0.56;64.02;99295.25;104912;1271;76919;-28
2022/03/26 02:01:23;;;;;;;10.10;5.70;;;;;;;1.19;63.51;99296.48;104986;1271;74483;-28
2022/03/26 02:03:56;;;;;;;18.90;8.40;;;;;;;2.15;61.55;99299.46;104900;1271;62725;-28
2022/03/26 02:06:30;;;;;;;19.90;8.90;;;;;;;2.44;60.20;99293.60;104967;1271;61063;-28
2022/03/26 02:09:04;;;;;;;16.80;7.50;;;;;;;2.36;59.89;99295.30;104806;1271;75522;-28
2022/03/26 02:11:35;;;;;;;14.90;7.40;;;;;;;2.17;60.18;99293.23;104775;1271;73633;-28
2022/03/26 02:14:07;;;;;;;15.90;9.20;;;;;;;1.98;60.66;99294.19;104772;1272;74880;-28
2022/03/26 02:16:38;;;;;;;17.40;9.30;;;;;;;1.79;61.40;99288.14;104730;1270;61115;-28
2022/03/26 02:19:09;;;;;;;19.50;9.80;;;;;;;1.60;61.45;99287.51;104788;1271;61093;-28
2022/03/26 02:21:40;;;;;;;15.10;9.40;;;;;;;1.46;62.03;99289.46;104825;1271;77126;-28
2022/03/26 02:24:10;;;;;;;14.70;7.50;;;;;;;1.31;62.43;99290.02;104803;1271;75784;-28
2022/03/26 02:26:40;;;;;;;16.60;9.90;;;;;;;1.20;62.57;99286.69;104953;1271;73716;-29
2022/03/26 02:29:11;;;;;;;16.70;9.10;;;;;;;1.10;62.82;99281.98;104968;1271;61070;-28
2022/03/26 02:31:42;;;;;;;18.20;9.40;;;;;;;1.01;63.16;99282.98;104770;1271;61063;-28
2022/03/26 02:34:11;;;;;;;21.80;9.20;;;;;;;0.93;62.96;99281.40;105340;1271;74356;-27
2022/03/26 02:36:41;;;;;;;17.70;9.60;;;;;;;0.85;63.25;99283.39;105264;1271;76068;-28
2022/03/26 02:39:11;;;;;;;16.90;9.30;;;;;;;0.79;63.43;99277.84;104983;1271;74278;-28
2022/03/26 02:41:41;;;;;;;19.80;9.30;;;;;;;0.72;63.83;99284.04;105377;1271;61014;-28
2022/03/26 02:44:11;;;;;;;17.60;8.80;;;;;;;0.66;63.88;99283.08;105201;1271;61119;-28
2022/03/26 02:46:41;;;;;;;14.00;7.50;;;;;;;0.60;63.48;99286.73;105147;1271;75853;-28
2022/03/26 02:49:14;;;;;;;18.40;9.20;;;;;;;0.55;64.06;99282.98;104981;1271;76233;-28
2022/03/26 02:51:44;;;;;;;16.80;8.40;;;;;;;0.50;64.11;99284.85;104817;1271;74424;-28
2022/03/26 02:54:19;;;;;;;14.60;7.40;;;;;;;0.46;64.16;99279.00;105229;1271;61092;-28
2022/03/26 02:56:49;;;;;;;15.60;8.70;;;;;;;0.42;64.39;99277.30;105086;1271;61128;-28
2022/03/26 02:59:21;;;;;;;15.10;8.40;;;;;;;0.37;64.80;99272.17;104795;1271;74154;-27
2022/03/26 03:01:52;;;;;;;16.00;8.60;;;;;;;0.32;65.07;99269.79;104791;1271;75866;-27
2022/03/26 03:04:21;;;;;;;19.60;9.40;;;;;;;0.29;65.11;99267.65;104857;1271;73474;-27
2022/03/26 03:06:51;;;;;;;11.20;5.70;;;;;;;0.28;65.80;99267.89;104913;1271;61063;-28
2022/03/26 03:09:21;;;;;;;19.00;8.40;;;;;;;0.84;65.59;99266.34;104790;1271;62043;-27
2022/03/26 03:11:51;;;;;;;18.20;9.20;;;;;;;1.78;63.32;99270.90;104943;1271;75525;-27
2022/03/26 03:14:32;;;;;;;19.60;10.00;;;;;;;2.08;62.01;99266.35;104892;1270;76064;-28
2022/03/26 03:17:21;;;;;;;18.50;8.30;;;;;;;1.99;61.72;99267.09;104902;1270;75680;-28
2022/03/26 03:19:52;;;;;;;19.50;8.00;;;;;;;1.80;61.99;99263.09;104933;1271;61166;-28
2022/03/26 03:22:38;;;;;;;16.30;8.50;;;;;;;1.60;62.65;99259.29;104932;1270;61048;-27
2022/03/26 03:25:08;;;;;;;19.80;9.40;;;;;;;1.40;63.19;99258.73;104749;1271;74366;-28
2022/03/26 03:27:38;;;;;;;20.10;9.70;;;;;;;1.21;63.62;99251.26;104746;1271;74843;-27
2022/03/26 03:30:10;;;;;;;19.60;9.30;;;;;;;1.05;63.89;99246.75;104753;1271;73302;-27
2022/03/26 03:32:40;;;;;;;14.60;8.00;;;;;;;0.93;64.22;99242.09;104758;1271;61050;-27
2022/03/26 03:35:09;;;;;;;16.40;7.90;;;;;;;0.81;64.66;99236.74;104795;1271;61067;-27
2022/03/26 03:37:45;;;;;;;13.20;8.90;;;;;;;0.72;64.83;99229.55;104908;1271;75501;-27
2022/03/26 03:40:17;;;;;;;16.20;9.20;;;;;;;0.65;65.12;99229.80;104976;1271;76655;-28
2022/03/26 03:42:47;;;;;;;23.70;9.30;;;;;;;0.58;65.78;99225.80;104798;1271;74410;-28
2022/03/26 03:45:17;;;;;;;17.10;8.10;;;;;;;0.52;66.05;99223.13;104924;1271;62482;-28
2022/03/26 03:47:47;;;;;;;18.10;8.80;;;;;;;0.48;65.75;99221.04;104950;1271;61160;-27
2022/03/26 03:50:16;;;;;;;19.50;8.90;;;;;;;0.46;66.04;99219.58;104778;1271;76003;-27
2022/03/26 03:52:46;;;;;;;24.70;9.00;;;;;;;0.42;66.68;99218.17;104965;1271;75901;-28
2022/03/26 03:55:15;;;;;;;18.90;9.40;;;;;;;0.40;67.08;99221.02;104956;1270;75766;-29
2022/03/26 03:57:45;;;;;;;11.70;5.80;;;;;;;0.40;67.40;99210.08;104942;1269;61061;-27
2022/03/26 04:00:15;;;;;;;15.20;6.90;;;;;;;0.99;66.82;99211.22;104950;1271;61135;-28
2022/03/26 04:02:45;;;;;;;16.60;8.90;;;;;;;1.83;64.55;99207.48;104797;1271;75551;-27
2022/03/26 04:05:15;;;;;;;14.00;7.90;;;;;;;2.07;63.44;99207.85;104967;1270;74682;-28
2022/03/26 04:07:45;;;;;;;12.60;7.20;;;;;;;2.03;63.25;99202.38;104977;1271;74186;-27
2022/03/26 04:10:34;;;;;;;14.90;7.20;;;;;;;1.86;63.86;99199.50;104922;1271;61029;-28
2022/03/26 04:13:04;;;;;;;21.90;10.10;;;;;;;1.73;64.16;99194.06;104967;1270;61088;-27
2022/03/26 04:15:52;;;;;;;16.40;8.40;;;;;;;1.63;64.85;99193.76;104905;1271;75628;-28
2022/03/26 04:18:23;;;;;;;19.60;10.00;;;;;;;1.57;65.32;99189.42;104951;1271;77675;-28
2022/03/26 04:20:53;;;;;;;15.30;9.40;;;;;;;1.51;65.56;99190.02;104919;1271;74439;-27
2022/03/26 04:23:24;;;;;;;14.30;8.50;;;;;;;1.47;65.91;99184.87;104786;1271;61055;-27
2022/03/26 04:25:54;;;;;;;15.50;8.90;;;;;;;1.47;65.49;99179.38;104925;1271;61163;-27
2022/03/26 04:28:23;;;;;;;13.40;7.80;;;;;;;1.50;65.87;99169.84;104974;1269;75505;-29
2022/03/26 04:30:53;;;;;;;16.40;9.90;;;;;;;1.58;66.05;99168.14;104774;1271;73895;-27
2022/03/26 04:33:23;;;;;;;14.90;8.20;;;;;;;1.68;65.83;99158.33;104883;1271;73463;-27
2022/03/26 04:35:56;;;;;;;19.40;9.40;;;;;;;1.77;65.74;99159.14;104814;1271;61156;-27
2022/03/26 04:38:25;;;;;;;14.00;8.30;;;;;;;1.89;65.47;99155.71;105014;1271;61317;-27
2022/03/26 04:40:56;;;;;;;15.70;8.90;;;;;;;2.02;65.52;99159.60;105224;1271;75593;-28
2022/03/26 04:43:26;;;;;;;19.20;8.30;;;;;;;2.12;65.78;99162.73;105260;1271;76334;-27
2022/03/26 04:45:56;;;;;;;20.80;9.70;;;;;;;2.21;65.58;99162.85;105253;1271;74857;-27
2022/03/26 04:48:26;;;;;;;15.90;7.80;;;;;;;2.35;65.43;99165.14;105144;1271;61328;-27
2022/03/26 04:50:55;;;;;;;18.70;8.60;;;;;;;3.06;63.87;99165.58;105272;1271;62784;-28
2022/03/26 04:53:25;;;;;;;17.10;9.80;;;;;;;3.80;61.42;99168.28;104975;1271;74565;-27
2022/03/26 04:55:55;;;;;;;21.60;9.50;;;;;;;4.03;60.01;99167.11;104803;1271;75761;-28
2022/03/26 04:58:25;;;;;;;18.10;9.30;;;;;;;4.00;60.12;99165.35;104974;1271;74465;-27
2022/03/26 05:00:55;;;;;;;16.50;9.10;;;;;;;3.93;60.05;99159.72;104966;1271;61039;-27
2022/03/26 05:03:25;;;;;;;17.90;9.30;;;;;;;3.87;60.41;99155.70;105252;1270;61054;-28
2022/03/26 05:05:55;;;;;;;22.80;9.60;;;;;;;3.81;60.83;99157.43;105185;1271;74518;-29
2022/03/26 05:08:24;;;;;;;15.70;9.40;;;;;;;3.76;61.47;99150.31;104792;1272;76189;-29
2022/03/26 05:10:58;;;;;;;14.60;8.40;;;;;;;3.77;61.14;99146.83;105172;1271;74396;-29
2022/03/26 05:13:28;;;;;;;18.40;9.00;;;;;;;3.79;61.31;99149.61;105230;1271;61028;-29
2022/03/26 05:15:58;;;;;;;20.60;10.30;;;;;;;3.80;61.33;99149.05;105137;1271;61123;-28
2022/03/26 05:18:28;;;;;;;22.50;10.50;;;;;;;3.82;61.27;99142.26;104958;1271;74398;-27
2022/03/26 05:20:58;;;;;;;18.50;9.00;;;;;;;3.84;61.31;99144.90;104723;1271;76438;-27
2022/03/26 05:23:27;;;;;;;17.70;10.40;;;;;;;3.84;61.15;99145.91;104973;1271;74094;-27
2022/03/26 05:25:58;;;;;;;16.90;10.10;;;;;;;3.89;60.89;99141.92;104998;1271;61051;-27
2022/03/26 05:28:27;;;;;;;19.40;10.60;;;;;;;3.95;61.14;99138.52;104924;1270;61134;-28
2022/03/26 05:30:58;;;;;;;19.90;10.20;;;;;;;4.00;61.13;99143.70;105105;1271;74605;-27
2022/03/26 05:33:28;;;;;;;22.20;11.20;;;;;;;4.06;61.48;99149.80;105251;1271;76224;-27
2022/03/26 05:35:58;;;;;;;20.50;10.80;;;;;;;4.12;61.43;99147.41;105269;1271;75027;-27
2022/03/26 05:38:28;;;;;;;20.20;10.00;;;;;;;4.16;60.86;99147.87;105255;1271;62117;-27
2022/03/26 05:40:58;;;;;;;18.10;9.50;;;;;;;4.22;60.93;99150.99;105029;1271;61162;-28
2022/03/26 05:43:27;;;;;;;18.80;10.70;;;;;;;4.28;60.82;99150.81;105111;1271;75700;-30
2022/03/26 05:45:57;;;;;;;23.80;11.10;;;;;;;4.38;61.03;99143.30;105126;1271;75897;-26
2022/03/26 05:48:27;;;;;;;17.70;9.20;;;;;;;4.53;60.55;99142.45;105045;1271;73005;-30
2022/03/26 05:50:58;;;;;;;15.90;9.40;;;;;;;4.71;60.41;99140.64;104917;1271;61151;-30
2022/03/26 05:53:28;;;;;;;22.30;10.60;;;;;;;4.90;60.50;99137.30;104987;1271;61630;-28
2022/03/26 05:55:59;;;;;;;17.80;8.80;;;;;;;5.06;59.47;99133.34;104954;1271;75796;-28
2022/03/26 05:58:29;;;;;;;16.20;9.90;;;;;;;5.17;58.51;99124.61;104952;1271;74844;-27
2022/03/26 06:00:58;;;;;;;19.90;11.70;;;;;;;5.25;58.67;99123.96;104990;1271;74258;-30
2022/03/26 06:03:28;;;;;;;25.90;12.00;;;;;;;5.34;58.44;99123.48;104993;1271;60988;-30
2022/03/26 06:05:58;;;;;;;22.10;9.90;;;;;;;5.48;58.47;99126.08;105047;1271;61112;-30
2022/03/26 06:08:28;;;;;;;27.90;12.20;;;;;;;5.66;57.58;99123.10;104951;1271;75317;-27
2022/03/26 06:10:58;;;;;;;23.60;10.10;;;;;;;5.82;56.70;99123.18;104503;1271;672557;-29
2022/03/26 06:13:28;;;;;;;21.20;8.90;;;;;;;5.98;57.11;99123.64;104732;1271;74568;-28
2022/03/26 06:16:01;;;;;;;21.30;10.90;;;;;;;6.12;56.24;99125.41;104938;1270;61051;-28
2022/03/26 06:18:31;;;;;;;21.80;10.90;;;;;;;6.24;56.35;99122.39;104949;1271;61114;-28
2022/03/26 06:21:00;;;;;;;16.90;8.80;;;;;;;6.40;56.91;99124.01;104982;1271;75440;-26
2022/03/26 06:23:30;;;;;;;25.00;11.20;;;;;;;6.53;55.24;99117.85;105110;1271;76064;-28
2022/03/26 06:26:01;;;;;;;27.40;11.70;;;;;;;6.67;55.03;99121.45;105138;1271;74826;-28
2022/03/26 06:28:30;;;;;;;22.60;10.10;;;;;;;6.84;54.96;99116.58;105203;1271;61147;-28
2022/03/26 06:31:00;;;;;;;22.00;11.00;;;;;;;7.05;54.50;99114.56;104969;1271;61767;-28
2022/03/26 06:33:30;;;;;;;25.50;11.70;;;;;;;7.22;53.50;99109.42;104919;1271;75720;-28
2022/03/26 06:36:02;;;;;;;23.00;11.00;;;;;;;7.41;53.34;99105.75;104886;1271;76092;-27
2022/03/26 06:38:38;;;;;;;22.90;10.70;;;;;;;7.55;52.70;99105.14;104768;1271;74311;-27
2022/03/26 06:41:11;;;;;;;19.40;10.40;;;;;;;7.71;52.22;99099.41;104748;1272;61130;-27
2022/03/26 06:43:41;;;;;;;23.20;9.70;;;;;;;7.81;51.66;99085.41;104784;1271;61096;-27
2022/03/26 06:46:12;;;;;;;20.30;10.30;;;;;;;7.91;51.10;99080.45;104822;1271;74507;-27
2022/03/26 06:48:41;;;;;;;23.60;11.50;;;;;;;8.05;51.28;99081.35;104788;1272;75979;-27
2022/03/26 06:51:11;;;;;;;15.40;7.20;;;;;;;8.27;50.98;99086.86;104912;1271;76739;-27
2022/03/26 06:53:41;;;;;;;25.60;11.30;;;;;;;8.46;50.44;99078.61;104957;1271;61108;-27
2022/03/26 06:56:11;;;;;;;17.80;8.70;;;;;;;8.58;50.19;99074.02;105024;1271;61058;-28
2022/03/26 06:58:41;;;;;;;16.90;9.50;;;;;;;8.74;50.04;99069.24;104668;1271;75616;-27
2022/03/26 07:01:11;;;;;;;18.70;9.80;;;;;;;8.89;50.00;99060.50;105242;1271;75972;-27
2022/03/26 07:03:41;;;;;;;25.00;11.90;;;;;;;9.06;49.76;99060.66;105069;1271;74149;-27
2022/03/26 07:06:12;;;;;;;22.80;9.40;;;;;;;9.18;49.46;99053.81;105124;1271;61035;-27
2022/03/26 07:08:42;;;;;;;22.50;11.90;;;;;;;9.27;49.40;99047.46;105092;1271;61025;-28
2022/03/26 07:11:12;;;;;;;21.10;9.70;;;;;;;9.43;49.43;99044.38;104902;1271;75522;-27
2022/03/26 07:13:41;;;;;;;29.30;12.30;;;;;;;9.56;49.32;99049.78;104982;1270;78155;-27
2022/03/26 07:16:11;;;;;;;23.20;12.30;;;;;;;9.70;49.15;99045.41;104930;1271;75349;-27
2022/03/26 07:18:41;;;;;;;22.70;9.70;;;;;;;9.72;49.37;99046.50;105004;1271;61033;-27
2022/03/26 07:21:10;;;;;;;19.50;9.60;;;;;;;9.88;48.99;99036.68;104954;1271;61210;-27
2022/03/26 07:23:40;;;;;;;23.30;10.50;;;;;;;9.97;48.99;99033.23;104950;1271;75344;-27
2022/03/26 07:26:10;;;;;;;19.10;10.70;;;;;;;10.14;48.87;99042.27;104824;1274;75714;-27
2022/03/26 07:28:40;;;;;;;17.60;10.10;;;;;;;10.38;48.44;99030.91;104874;1271;75176;-27
2022/03/26 07:31:10;;;;;;;22.70;10.50;;;;;;;10.49;48.08;99037.10;104971;1271;62617;-27
2022/03/26 07:33:39;;;;;;;19.20;9.50;;;;;;;10.66;48.11;99030.59;105306;1271;61225;-27
2022/03/26 07:36:09;;;;;;;22.50;11.10;;;;;;;10.89;47.78;99029.32;105156;1271;75570;-27
2022/03/26 07:38:38;;;;;;;18.50;9.60;;;;;;;11.01;47.27;99013.23;105147;1271;74172;-27
2022/03/26 07:41:08;;;;;;;26.30;10.60;;;;;;;11.02;46.98;99003.42;104868;1271;74376;-27
2022/03/26 07:43:38;;;;;;;17.90;10.10;;;;;;;11.10;47.08;99001.35;105115;1271;61141;-27
2022/03/26 07:46:09;;;;;;;25.40;9.10;;;;;;;11.14;46.55;98997.60;105142;1271;61135;-27
2022/03/26 07:48:39;;;;;;;18.50;9.00;;;;;;;11.35;46.65;99003.63;105298;1271;75858;-27
2022/03/26 07:51:10;;;;;;;18.60;10.10;;;;;;;11.58;46.02;98993.83;105110;1271;75057;-27
2022/03/26 07:53:39;;;;;;;19.20;9.30;;;;;;;11.61;45.69;98988.42;105070;1271;73356;-27
2022/03/26 07:56:09;;;;;;;19.30;9.60;;;;;;;11.65;45.52;98977.29;104893;1271;60962;-28
2022/03/26 07:58:38;;;;;;;20.50;10.00;;;;;;;11.75;45.55;98981.25;104785;1271;61032;-28
2022/03/26 08:01:10;;;;;;;16.40;9.20;;;;;;;11.97;45.95;98984.89;104942;1271;75542;-27
2022/03/26 08:03:40;;;;;;;23.10;9.70;;;;;;;12.14;45.03;98977.68;104894;1271;75919;-27
2022/03/26 08:06:10;;;;;;;21.70;10.00;;;;;;;12.29;44.65;98980.38;104977;1270;73468;-26
2022/03/26 08:08:40;;;;;;;15.10;8.50;;;;;;;12.42;44.50;98961.67;104937;1271;61047;-26
2022/03/26 08:11:10;;;;;;;18.70;10.00;;;;;;;12.44;44.92;98966.31;104957;1271;61170;-27
2022/03/26 08:13:40;;;;;;;14.00;7.30;;;;;;;12.65;44.43;98962.52;104971;1271;75697;-28
2022/03/26 08:16:09;;;;;;;17.70;8.90;;;;;;;12.75;44.03;98951.20;104979;1271;76715;-26
2022/03/26 08:18:40;;;;;;;16.50;8.60;;;;;;;12.88;43.84;98951.38;104992;1269;74390;-26
2022/03/26 08:21:10;;;;;;;11.50;7.40;;;;;;;13.15;43.43;98954.70;105255;1271;60890;-26
2022/03/26 08:23:39;;;;;;;15.40;8.40;;;;;;;13.23;43.38;98946.77;104988;1273;61131;-27
2022/03/26 08:26:26;;;;;;;16.70;8.60;;;;;;;13.42;43.13;98925.83;105111;1271;74504;-26
2022/03/26 08:29:00;;;;;;;12.80;8.00;;;;;;;13.46;43.13;98930.55;104803;1271;76243;-26
2022/03/26 08:31:31;;;;;;;36.40;10.60;;;;;;;13.57;42.94;98915.20;104766;1273;73705;-26
2022/03/26 08:34:02;;;;;;;17.30;9.80;;;;;;;13.46;43.27;98910.83;104940;1271;61067;-26
2022/03/26 08:36:32;;;;;;;10.40;7.70;;;;;;;13.30;43.72;98905.09;104865;1271;60993;-27
2022/03/26 08:39:02;;;;;;;11.00;7.80;;;;;;;13.34;43.16;98899.71;105083;1271;75324;-26
2022/03/26 08:41:31;;;;;;;17.90;7.80;;;;;;;13.38;43.33;98897.05;104973;1271;73929;-28
2022/03/26 08:44:01;;;;;;;12.40;7.50;;;;;;;13.57;43.33;98890.80;104921;1271;74285;-26
2022/03/26 08:46:31;;;;;;;17.80;8.60;;;;;;;13.67;43.16;98890.70;104972;1271;61043;-27
2022/03/26 08:49:01;;;;;;;17.10;8.50;;;;;;;13.53;43.25;98884.36;105009;1271;62988;-26
2022/03/26 08:51:32;;;;;;;12.90;7.50;;;;;;;13.61;43.10;98885.13;104969;1271;74359;-26
2022/03/26 08:54:03;;;;;;;14.40;7.90;;;;;;;13.51;43.47;98875.30;105046;1271;76022;-26
2022/03/26 08:56:34;;;;;;;13.40;7.40;;;;;;;13.59;43.53;98875.23;105137;1271;74429;-26
2022/03/26 08:59:04;;;;;;;11.80;8.20;;;;;;;13.65;43.30;98867.84;104828;1271;60991;-27
2022/03/26 09:01:33;;;;;;;16.90;6.70;;;;;;;13.51;43.43;98855.75;104997;1271;61146;-28
2022/03/26 09:04:04;;;;;;;19.90;8.30;;;;;;;13.77;43.68;98887.10;105108;1271;75032;-26
2022/03/26 09:06:34;;;;;;;15.10;8.30;;;;;;;13.97;43.01;98864.70;105139;1271;74977;-26
2022/03/26 09:09:04;;;;;;;17.50;7.30;;;;;;;13.76;42.28;98854.50;105022;1274;73235;-26
2022/03/26 09:11:54;;;;;;;13.70;8.60;;;;;;;13.73;42.43;98831.33;104989;1271;61855;-27
2022/03/26 09:14:24;;;;;;;19.00;8.60;;;;;;;13.63;41.34;98843.21;104967;1271;61041;-26
2022/03/26 09:16:54;;;;;;;15.30;6.80;;;;;;;13.67;40.58;98849.68;104897;1271;75938;-26
2022/03/26 09:19:23;;;;;;;17.40;7.80;;;;;;;14.00;40.88;98854.14;104859;1271;73926;-26
2022/03/26 09:21:53;;;;;;;12.20;7.60;;;;;;;14.24;40.17;98846.69;104934;1271;74407;-27
2022/03/26 09:24:23;;;;;;;11.40;6.70;;;;;;;14.23;39.29;98827.62;104936;1271;61710;-27
2022/03/26 09:26:53;;;;;;;14.00;6.70;;;;;;;14.24;39.29;98824.73;104928;1270;61097;-27
2022/03/26 09:29:22;;;;;;;10.20;6.00;;;;;;;14.40;38.68;98829.62;104799;1271;75531;-26
2022/03/26 09:31:52;;;;;;;14.70;7.80;;;;;;;14.57;39.04;98852.31;104905;1271;76040;-27
2022/03/26 09:34:22;;;;;;;11.10;7.10;;;;;;;14.60;38.84;98819.90;104884;1271;73379;-28
2022/03/26 09:36:53;;;;;;;12.50;7.30;;;;;;;14.42;38.31;98800.70;104801;1271;61138;-28
2022/03/26 09:39:23;;;;;;;11.90;6.90;;;;;;;14.17;38.82;98807.45;104659;1271;61029;-27
2022/03/26 09:41:53;;;;;;;9.80;6.20;;;;;;;14.39;38.68;98822.02;104928;1271;75625;-27
2022/03/26 09:44:23;;;;;;;10.70;6.40;;;;;;;14.62;37.58;98796.98;104719;1272;76015;-27
2022/03/26 09:46:53;;;;;;;14.40;7.80;;;;;;;14.72;37.28;98806.65;104799;1274;74531;-27
2022/03/26 09:49:22;;;;;;;9.30;5.30;;;;;;;14.76;37.38;98816.36;105141;1271;61011;-28
2022/03/26 09:51:56;;;;;;;26.90;6.90;;;;;;;15.01;36.54;98795.67;105088;1274;61169;-29
2022/03/26 09:54:26;;;;;;;9.50;4.90;;;;;;;14.90;36.45;98794.33;105082;1271;75515;-28
2022/03/26 09:56:55;;;;;;;14.30;6.00;;;;;;;15.15;36.48;98806.91;104681;1271;76071;-28
2022/03/26 09:59:25;;;;;;;15.90;6.90;;;;;;;15.23;36.06;98782.48;105116;1271;74190;-28
2022/03/26 10:01:56;;;;;;;10.50;6.00;;;;;;;15.43;35.34;98758.36;104859;1271;61212;-28
2022/03/26 10:04:38;;;;;;;8.40;5.60;;;;;;;15.28;35.34;98768.21;105013;1271;61069;-28
2022/03/26 10:07:10;;;;;;;8.80;4.50;;;;;;;15.31;35.76;98777.30;104758;1271;76670;-28
2022/03/26 10:09:46;;;;;;;9.00;5.30;;;;;;;15.63;35.56;98773.48;104833;1271;75976;-29
2022/03/26 10:12:19;;;;;;;12.40;6.60;;;;;;;15.39;35.47;98752.29;104676;1274;73177;-28
2022/03/26 10:14:59;;;;;;;;;;;;;;;15.05;36.01;98755.70;104860;1271;61130;-26
2022/03/26 10:17:36;;;;;;;13.90;4.40;;;;;;;15.12;36.08;98765.52;104758;1274;61130;-27
2022/03/26 10:20:25;;;;;;;13.70;6.20;;;;;;;15.32;34.35;98737.86;104878;1271;75694;-27
2022/03/26 10:22:55;;;;;;;25.10;9.20;;;;;;;15.11;33.98;98701.65;104994;1271;76315;-28
2022/03/26 10:25:25;;;;;;;32.50;7.60;;;;;;;14.60;34.59;98693.13;105109;1272;74381;-27
2022/03/26 10:27:56;;;;;;;15.80;6.40;;;;;;;13.78;36.60;98697.84;105017;1270;61079;-27
2022/03/26 10:33:20;;;;;;;7.80;4.50;;;;;;;14.22;35.03;98673.88;105124;1271;74510;-26
2022/03/26 10:35:54;;;;;;;10.50;4.50;;;;;;;14.04;35.26;98697.30;105179;1274;75972;-26
2022/03/26 10:38:42;;;;;;;11.40;5.30;;;;;;;13.87;35.83;98698.36;105145;1272;73550;-26
2022/03/26 10:41:12;;;;;;;11.70;4.90;;;;;;;13.95;36.07;98708.64;104881;1271;61108;-26
2022/03/26 10:43:42;;;;;;;9.80;4.50;;;;;;;14.00;36.26;98684.81;104918;1271;61005;-26
2022/03/26 10:46:11;;;;;;;12.20;6.50;;;;;;;13.95;35.99;98686.39;104992;1271;74465;-27
2022/03/26 10:48:43;;;;;;;25.40;6.50;;;;;;;13.91;36.25;98681.06;104973;1271;76291;-26
2022/03/26 10:51:15;;;;;;;19.30;7.40;;;;;;;13.89;36.76;98674.77;104969;1271;74478;-26
2022/03/26 10:53:49;;;;;;;11.30;4.20;;;;;;;13.96;36.13;98656.09;104892;1271;61089;-26
2022/03/26 10:56:20;;;;;;;13.60;5.40;;;;;;;14.15;35.57;98648.09;104915;1271;61076;-26
2022/03/26 10:58:50;;;;;;;8.90;4.60;;;;;;;14.18;35.46;98600.80;104988;1272;75375;-26
2022/03/26 11:01:20;;;;;;;7.40;4.00;;;;;;;14.19;34.84;98592.39;104938;1271;73966;-26
2022/03/26 11:03:55;;;;;;;10.70;4.70;;;;;;;14.24;35.05;98574.54;104747;1274;74572;-27
2022/03/26 11:06:28;;;;;;;5.70;3.90;;;;;;;14.27;35.13;98573.40;104943;1272;61139;-26
2022/03/26 11:09:00;;;;;;;10.00;5.00;;;;;;;14.38;35.30;98564.02;104726;1270;61254;-26
2022/03/26 11:11:29;;;;;;;9.60;4.90;;;;;;;14.38;35.50;98560.68;104884;1271;74627;-27
2022/03/26 11:14:01;;;;;;;11.20;5.10;;;;;;;14.41;35.19;98550.96;105093;1271;74774;-27
2022/03/26 11:16:40;;;;;;;14.20;4.20;;;;;;;14.30;35.12;98531.84;104923;1271;74450;-26
2022/03/26 11:19:34;;;;;;;8.80;4.70;;;;;;;14.41;34.80;98528.60;104889;1269;61658;-26
2022/03/26 11:22:31;;;;;;;9.30;4.50;;;;;;;14.48;34.70;98553.89;104956;1270;61083;-26
2022/03/26 11:25:03;;;;;;;9.80;4.20;;;;;;;14.66;34.59;98575.98;104922;1271;75566;-26
2022/03/26 11:27:51;;;;;;;8.90;3.90;;;;;;;14.71;34.51;98554.67;104977;1271;76522;-26
2022/03/26 11:30:46;;;;;;;8.90;4.10;;;;;;;14.49;34.93;98534.60;104974;1272;74407;-26
2022/03/26 11:33:15;;;;;;;7.50;3.60;;;;;;;14.43;34.98;98528.94;105084;1271;61263;-26
2022/03/26 11:35:55;;;;;;;8.00;3.90;;;;;;;14.32;35.11;98511.50;104824;1274;61335;-26
2022/03/26 11:38:28;;;;;;;12.10;4.60;;;;;;;14.45;35.78;98518.07;104916;1271;74524;-26
2022/03/26 11:41:04;;;;;;;9.50;4.20;;;;;;;14.76;35.97;98523.91;105020;1271;75965;-26
2022/03/26 11:43:44;;;;;;;10.60;5.00;;;;;;;14.87;35.62;98524.02;104829;1271;74967;-26